Time;durP1;ratioP1;P1;durP2;ratioP2;P2;SDS_P1;SDS_P2;PMS_P1;PMS_P2;Temp;Humidity;BMP_temperature;BMP_pressure;BME280_temperature;BME280_humidity;BME280_pressure;Samples;Min_cycle;Max_cycle;Signal;HPM_P1;HPM_P2
2022/01/06 00:01:52;;;;;;;6.40;3.30;;;;;;;0.43;100.00;95533.97;10517754;28;20194;-79
2022/01/06 00:06:53;;;;;;;5.53;2.67;;;;;;;0.50;100.00;95542.84;10536111;28;20183;-78
2022/01/06 00:11:53;;;;;;;3.90;2.53;;;;;;;0.49;100.00;95528.31;10517628;28;20198;-79
2022/01/06 00:17:17;;;;;;;4.67;2.93;;;;;;;0.52;100.00;95539.22;10535617;28;20581;-79
2022/01/06 00:27:36;;;;;;;6.73;3.00;;;;;;;0.62;100.00;95544.44;10503457;28;20186;-79
2022/01/06 00:32:37;;;;;;;4.33;2.40;;;;;;;0.66;100.00;95538.09;10516936;28;20293;-78
2022/01/06 00:37:37;;;;;;;5.70;2.53;;;;;;;0.65;100.00;95541.59;10535524;28;20253;-77
2022/01/06 00:42:39;;;;;;;7.47;2.67;;;;;;;0.61;100.00;95542.78;10500179;28;20239;-78
2022/01/06 00:47:39;;;;;;;4.47;2.03;;;;;;;0.71;100.00;95548.84;10516781;28;20200;-78
2022/01/06 00:52:39;;;;;;;4.73;2.40;;;;;;;0.74;100.00;95546.97;10542837;28;20184;-78
2022/01/06 00:57:40;;;;;;;7.07;3.13;;;;;;;0.75;100.00;95556.31;10524832;28;20235;-78
2022/01/06 01:02:41;;;;;;;6.33;3.10;;;;;;;0.80;100.00;95554.22;10542697;28;20544;-77
2022/01/06 01:07:41;;;;;;;6.27;2.70;;;;;;;0.82;100.00;95565.19;10524309;28;20196;-77
2022/01/06 01:12:46;;;;;;;9.07;2.73;;;;;;;0.79;100.00;95568.03;10524305;28;20201;-78
2022/01/06 01:17:51;;;;;;;12.90;3.10;;;;;;;0.60;100.00;95568.69;10535959;28;20183;-78
2022/01/06 01:22:51;;;;;;;3.40;2.30;;;;;;;0.43;100.00;95581.19;10541957;28;20195;-78
2022/01/06 01:27:55;;;;;;;8.03;2.90;;;;;;;0.35;100.00;95599.81;10542343;28;20182;-76
2022/01/06 01:32:56;;;;;;;10.23;3.07;;;;;;;0.36;100.00;95603.19;10523804;28;20197;-78
2022/01/06 01:37:57;;;;;;;11.83;2.97;;;;;;;0.53;100.00;95620.72;10523521;28;20276;-77
2022/01/06 01:42:58;;;;;;;13.37;2.90;;;;;;;0.62;100.00;95629.47;10540590;28;20273;-78
2022/01/06 01:48:04;;;;;;;9.03;2.43;;;;;;;0.68;100.00;95631.56;10541204;28;20288;-78
2022/01/06 01:53:04;;;;;;;14.80;3.30;;;;;;;0.68;100.00;95620.44;10540603;28;20210;-78
2022/01/06 01:58:05;;;;;;;13.20;2.77;;;;;;;0.65;100.00;95634.38;10540902;28;20212;-78
2022/01/06 02:03:06;;;;;;;11.83;2.33;;;;;;;0.26;100.00;95625.47;10538597;28;20200;-77
2022/01/06 02:08:06;;;;;;;11.50;2.80;;;;;;;0.12;100.00;95627.38;10540770;28;20193;-76
2022/01/06 02:13:07;;;;;;;10.17;2.70;;;;;;;0.10;100.00;95649.03;10521383;28;20225;-78
2022/01/06 02:18:07;;;;;;;10.30;2.40;;;;;;;0.07;100.00;95654.41;10540047;28;20190;-78
2022/01/06 02:23:07;;;;;;;6.90;2.47;;;;;;;-0.06;100.00;95663.06;10539525;28;20182;-77
2022/01/06 02:28:08;;;;;;;10.33;2.53;;;;;;;-0.13;100.00;95667.03;10539292;28;20197;-76
2022/01/06 02:33:08;;;;;;;5.73;2.80;;;;;;;-0.17;100.00;95668.19;10520991;28;20225;-77
2022/01/06 02:38:10;;;;;;;8.90;3.20;;;;;;;-0.12;100.00;95667.84;10520613;28;20226;-76
2022/01/06 02:43:13;;;;;;;7.13;2.57;;;;;;;-0.07;100.00;95669.16;10538229;28;20190;-76
2022/01/06 02:48:14;;;;;;;5.93;2.53;;;;;;;0.02;100.00;95672.78;10538715;28;20202;-77
2022/01/06 02:53:16;;;;;;;4.83;3.03;;;;;;;0.06;100.00;95687.06;10520190;28;20222;-77
2022/01/06 02:58:17;;;;;;;7.73;3.67;;;;;;;-0.01;100.00;95683.31;10538211;28;20186;-77
2022/01/06 03:03:18;;;;;;;8.17;3.73;;;;;;;0.13;100.00;95687.41;10538178;28;20279;-78
2022/01/06 03:08:22;;;;;;;9.73;3.40;;;;;;;0.07;100.00;95698.19;10537777;28;20285;-78
2022/01/06 03:13:22;;;;;;;11.23;3.37;;;;;;;0.09;100.00;95696.28;10518866;28;20320;-78
2022/01/06 03:18:23;;;;;;;14.97;3.50;;;;;;;0.15;100.00;95688.09;10519817;28;20709;-79
2022/01/06 03:23:23;;;;;;;13.23;3.27;;;;;;;0.25;100.00;95699.34;10536970;28;20740;-80
2022/01/06 03:28:23;;;;;;;13.30;2.67;;;;;;;0.22;100.00;95698.78;10501573;28;20638;-78
2022/01/06 03:33:24;;;;;;;7.27;2.60;;;;;;;0.17;100.00;95714.56;10536150;28;20699;-79
2022/01/06 03:38:24;;;;;;;15.00;2.53;;;;;;;0.14;100.00;95705.31;10535059;28;20236;-78
2022/01/06 03:43:26;;;;;;;13.23;2.70;;;;;;;0.23;100.00;95702.97;10534556;28;20214;-78
2022/01/06 03:48:26;;;;;;;15.17;2.93;;;;;;;0.23;100.00;95708.97;10536710;28;20549;-79
2022/01/06 03:53:26;;;;;;;16.13;3.57;;;;;;;0.24;100.00;95710.56;10500466;28;20223;-80
2022/01/06 03:58:27;;;;;;;12.13;3.30;;;;;;;0.26;100.00;95718.19;10536549;28;20194;-79
2022/01/06 04:03:27;;;;;;;7.93;2.90;;;;;;;0.35;100.00;95714.91;10532600;28;20201;-79
2022/01/06 04:08:28;;;;;;;17.07;3.33;;;;;;;0.29;100.00;95721.38;10530842;28;20192;-78
2022/01/06 04:13:29;;;;;;;14.07;2.67;;;;;;;0.16;100.00;95739.50;10527905;28;20237;-78
2022/01/06 04:18:29;;;;;;;9.97;2.73;;;;;;;0.11;100.00;95740.78;10511071;28;20203;-79
2022/01/06 04:23:29;;;;;;;8.10;3.37;;;;;;;-0.03;100.00;95745.22;10528176;28;20256;-78
2022/01/06 04:28:30;;;;;;;11.53;3.00;;;;;;;-0.08;100.00;95765.31;10536933;28;20340;-78
2022/01/06 04:33:30;;;;;;;7.63;2.83;;;;;;;0.02;100.00;95770.63;10537376;28;20229;-78
2022/01/06 04:38:31;;;;;;;9.77;2.50;;;;;;;-0.10;100.00;95772.34;10536455;28;20329;-78
2022/01/06 04:43:32;;;;;;;5.17;2.10;;;;;;;-0.16;100.00;95797.72;10518075;28;20189;-78
2022/01/06 04:48:35;;;;;;;3.87;2.27;;;;;;;-0.06;100.00;95796.94;10536109;28;20202;-78
2022/01/06 04:53:35;;;;;;;4.00;1.77;;;;;;;-0.08;100.00;95809.09;10517726;28;20672;-78
2022/01/06 04:58:36;;;;;;;4.97;2.30;;;;;;;-0.10;100.00;95821.25;10535994;28;20201;-78
2022/01/06 05:03:36;;;;;;;7.07;2.47;;;;;;;-0.16;100.00;95836.34;10540375;28;20194;-79
2022/01/06 05:08:37;;;;;;;1.40;1.30;;;;;;;-0.62;100.00;95845.63;10542358;28;20194;-78
2022/01/06 05:13:37;;;;;;;4.30;1.83;;;;;;;-0.80;100.00;95869.13;10542507;28;20307;-78
2022/01/06 05:18:38;;;;;;;5.00;2.33;;;;;;;-0.81;100.00;95875.22;10542330;28;20194;-77
2022/01/06 05:23:40;;;;;;;9.90;3.07;;;;;;;-0.95;100.00;95891.59;10523452;28;20277;-78
2022/01/06 05:28:40;;;;;;;6.00;2.97;;;;;;;-1.01;100.00;95898.88;10541591;28;20221;-79
2022/01/06 05:33:41;;;;;;;4.97;3.00;;;;;;;-1.04;100.00;95917.09;10541732;28;20309;-79
2022/01/06 05:38:41;;;;;;;5.33;2.90;;;;;;;-1.13;100.00;95929.66;10540798;28;20321;-79
2022/01/06 05:43:42;;;;;;;7.20;3.30;;;;;;;-1.05;100.00;95936.84;10540352;28;20277;-77
2022/01/06 05:48:43;;;;;;;5.07;2.83;;;;;;;-1.14;100.00;95940.03;10541044;28;20198;-77
2022/01/06 05:53:43;;;;;;;6.10;3.07;;;;;;;-1.14;100.00;95965.75;10540153;28;20279;-77
2022/01/06 05:58:44;;;;;;;5.50;2.60;;;;;;;-1.16;100.00;95977.88;10540785;28;20183;-77
2022/01/06 06:03:44;;;;;;;8.20;2.97;;;;;;;-1.20;100.00;95992.66;10541311;28;20182;-77
2022/01/06 06:08:45;;;;;;;3.27;2.47;;;;;;;-1.29;100.00;96001.81;10540372;28;20195;-77
2022/01/06 06:13:45;;;;;;;7.23;2.73;;;;;;;-1.49;100.00;96015.13;10514067;28;20225;-77
2022/01/06 06:18:46;;;;;;;7.37;2.63;;;;;;;-1.55;100.00;96034.31;10514816;28;20248;-77
2022/01/06 06:23:47;;;;;;;6.67;2.70;;;;;;;-1.54;100.00;96053.94;10539496;28;20665;-77
2022/01/06 06:28:47;;;;;;;6.87;2.33;;;;;;;-1.51;100.00;96064.03;10541103;28;20545;-77
2022/01/06 06:33:48;;;;;;;2.47;1.80;;;;;;;-1.65;100.00;96080.31;10539997;28;20233;-77
2022/01/06 06:38:48;;;;;;;9.03;2.20;;;;;;;-1.70;100.00;96089.22;10540677;28;20234;-78
2022/01/06 06:43:48;;;;;;;2.53;1.97;;;;;;;-1.84;100.00;96108.91;10539896;28;20271;-79
2022/01/06 06:48:49;;;;;;;6.30;2.03;;;;;;;-1.98;100.00;96124.31;10494328;28;20206;-78
2022/01/06 06:53:49;;;;;;;4.33;1.63;;;;;;;-2.22;100.00;96124.06;10501238;28;20206;-78
2022/01/06 06:58:49;;;;;;;6.97;1.97;;;;;;;-2.35;100.00;96129.91;10514720;28;20191;-78
2022/01/06 07:03:50;;;;;;;5.27;1.73;;;;;;;-2.46;100.00;96146.88;10497689;28;20631;-78
2022/01/06 07:08:50;;;;;;;7.20;2.17;;;;;;;-2.48;100.00;96159.78;10496937;28;20740;-78
2022/01/06 07:13:50;;;;;;;5.17;2.10;;;;;;;-2.40;100.00;96175.53;10497409;28;20674;-78
2022/01/06 07:18:51;;;;;;;6.97;1.67;;;;;;;-2.43;100.00;96188.56;10496318;28;20662;-77
2022/01/06 07:23:52;;;;;;;4.57;1.50;;;;;;;-2.47;100.00;96191.38;10492530;28;20245;-77
2022/01/06 07:28:52;;;;;;;10.40;1.70;;;;;;;-2.48;100.00;96200.81;10493944;28;20199;-78
2022/01/06 07:33:52;;;;;;;8.57;1.50;;;;;;;-2.40;100.00;96218.34;10494094;28;20602;-77
2022/01/06 07:38:53;;;;;;;6.03;1.60;;;;;;;-2.55;100.00;96227.72;10468450;28;20810;-77
2022/01/06 07:43:53;;;;;;;3.37;1.27;;;;;;;-2.60;100.00;96234.88;10472662;28;20830;-77
2022/01/06 07:48:57;;;;;;;3.73;1.27;;;;;;;-2.72;100.00;96250.03;10494629;28;20552;-77
2022/01/06 07:53:58;;;;;;;5.00;1.30;;;;;;;-2.74;100.00;96256.13;10492212;28;20218;-78
2022/01/06 07:58:59;;;;;;;2.33;1.17;;;;;;;-2.69;100.00;96256.72;10474557;28;20187;-77
2022/01/06 08:03:59;;;;;;;3.00;1.30;;;;;;;-2.69;100.00;96265.22;10494063;28;20195;-78
2022/01/06 08:08:59;;;;;;;3.93;1.50;;;;;;;-2.66;100.00;96281.34;10493675;28;20205;-78
2022/01/06 08:14:00;;;;;;;2.10;1.53;;;;;;;-2.65;100.00;96301.75;10492157;28;20326;-77
2022/01/06 08:19:00;;;;;;;4.63;1.77;;;;;;;-2.66;100.00;96295.00;10493963;28;20187;-77
2022/01/06 08:24:01;;;;;;;7.43;1.23;;;;;;;-2.61;100.00;96308.38;10492167;28;20266;-77
2022/01/06 08:29:01;;;;;;;7.00;1.47;;;;;;;-2.51;100.00;96319.78;10492035;28;20191;-77
2022/01/06 08:34:01;;;;;;;7.50;1.40;;;;;;;-2.71;100.00;96318.34;10491570;28;20223;-76
2022/01/06 08:39:02;;;;;;;7.40;1.80;;;;;;;-2.63;100.00;96335.03;10518562;28;20230;-78
2022/01/06 08:44:04;;;;;;;4.53;1.37;;;;;;;-2.64;100.00;96359.84;10532588;28;20194;-78
2022/01/06 08:49:06;;;;;;;8.77;1.63;;;;;;;-2.54;100.00;96363.56;10532290;28;20277;-77
2022/01/06 08:54:06;;;;;;;6.27;2.60;;;;;;;-2.26;100.00;96385.09;10532191;28;20771;-77
2022/01/06 08:59:07;;;;;;;3.17;1.30;;;;;;;-1.97;100.00;96383.47;10509922;28;20195;-78
2022/01/06 09:04:07;;;;;;;1.90;1.47;;;;;;;-1.80;100.00;96392.75;10533339;28;20901;-77
2022/01/06 09:09:07;;;;;;;7.80;1.97;;;;;;;-1.93;100.00;96396.13;10506549;28;20552;-77
2022/01/06 09:14:08;;;;;;;6.03;1.80;;;;;;;-1.72;100.00;96404.34;10513068;28;20230;-77
2022/01/06 09:19:08;;;;;;;6.93;1.80;;;;;;;-1.54;100.00;96405.84;10538940;28;20206;-78
2022/01/06 09:24:09;;;;;;;8.30;1.97;;;;;;;-1.16;100.00;96412.22;10539729;28;20190;-78
2022/01/06 09:29:13;;;;;;;7.23;1.80;;;;;;;-1.37;100.00;96419.44;10539570;28;20206;-79
2022/01/06 09:34:13;;;;;;;5.03;2.07;;;;;;;-1.46;100.00;96425.94;10539451;28;20585;-79
2022/01/06 09:39:14;;;;;;;7.10;1.83;;;;;;;-1.11;100.00;96434.13;10539790;28;20233;-79
2022/01/06 09:44:14;;;;;;;5.87;2.40;;;;;;;-1.26;100.00;96424.78;10538757;28;20530;-78
2022/01/06 09:49:15;;;;;;;11.10;2.27;;;;;;;-1.27;100.00;96429.09;10539003;28;20195;-78
2022/01/06 09:54:15;;;;;;;4.03;2.07;;;;;;;-1.30;100.00;96428.47;10538166;28;20222;-78
2022/01/06 09:59:15;;;;;;;6.77;3.33;;;;;;;-1.01;100.00;96429.28;10537664;28;20186;-78
2022/01/06 10:04:18;;;;;;;10.47;3.17;;;;;;;-0.45;100.00;96444.75;10538946;28;20578;-78
2022/01/06 10:09:23;;;;;;;6.60;2.70;;;;;;;-0.12;100.00;96438.41;10540000;28;20178;-79
2022/01/06 10:14:32;;;;;;;7.63;2.80;;;;;;;-0.36;100.00;96436.44;10519015;28;20831;-80
2022/01/06 10:19:36;;;;;;;10.37;4.37;;;;;;;-0.25;100.00;96440.09;10520403;28;20650;-79
2022/01/06 10:24:36;;;;;;;4.40;2.70;;;;;;;-0.24;100.00;96437.44;10535507;28;20179;-79
2022/01/06 10:29:43;;;;;;;2.83;2.20;;;;;;;-0.78;100.00;96443.31;10536956;28;20203;-79
2022/01/06 10:34:46;;;;;;;5.77;2.40;;;;;;;-0.90;100.00;96449.22;10536770;28;20241;-78
2022/01/06 10:39:48;;;;;;;4.07;2.10;;;;;;;-0.57;100.00;96456.63;10537080;28;20234;-79
2022/01/06 10:44:57;;;;;;;6.87;2.50;;;;;;;-0.77;100.00;96462.97;10517567;28;20642;-78
2022/01/06 10:50:19;;;;;;;7.00;3.00;;;;;;;-0.23;100.00;96485.44;10536413;28;20236;-79
2022/01/06 10:55:31;;;;;;;6.50;2.50;;;;;;;-0.10;100.00;96488.03;10515928;28;20259;-79
2022/01/06 11:00:37;;;;;;;4.90;2.63;;;;;;;0.42;100.00;96490.81;10517906;28;20533;-80
2022/01/06 11:05:46;;;;;;;8.53;2.87;;;;;;;1.11;100.00;96485.44;10536390;28;20197;-79
2022/01/06 11:10:51;;;;;;;7.43;2.80;;;;;;;1.08;100.00;96473.56;10500916;28;20221;-78
2022/01/06 11:15:51;;;;;;;2.57;2.30;;;;;;;0.07;100.00;96501.63;10493956;28;20708;-78
2022/01/06 11:20:52;;;;;;;5.33;2.27;;;;;;;-0.27;100.00;96509.69;10493562;28;20221;-77
2022/01/06 11:26:11;;;;;;;6.33;2.47;;;;;;;-0.35;100.00;96509.34;10496406;28;20193;-77
2022/01/06 11:31:21;;;;;;;4.87;2.40;;;;;;;-0.55;100.00;96502.84;10520600;28;20194;-77
2022/01/06 11:36:32;;;;;;;5.63;2.27;;;;;;;-0.30;100.00;96521.94;10474293;28;20326;-77
2022/01/06 11:41:37;;;;;;;6.23;2.03;;;;;;;0.25;100.00;96515.91;10492427;28;20615;-77
2022/01/06 11:46:42;;;;;;;5.10;2.40;;;;;;;0.40;100.00;96514.09;10493613;28;20190;-76
2022/01/06 11:51:43;;;;;;;4.63;1.70;;;;;;;0.06;100.00;96520.56;10531840;28;20192;-77
2022/01/06 11:56:50;;;;;;;6.80;2.10;;;;;;;-0.73;100.00;96507.34;10497576;28;20224;-77
2022/01/06 12:01:51;;;;;;;5.17;1.90;;;;;;;-0.22;100.00;96507.66;10531438;28;20189;-77
2022/01/06 12:07:03;;;;;;;4.23;2.50;;;;;;;-0.03;100.00;96514.22;10521039;28;20215;-76
2022/01/06 12:12:06;;;;;;;4.10;2.13;;;;;;;-0.03;100.00;96515.06;10497279;28;20722;-76
2022/01/06 12:17:08;;;;;;;6.07;1.87;;;;;;;0.22;100.00;96512.72;10516263;28;20214;-76
2022/01/06 12:22:10;;;;;;;5.67;1.90;;;;;;;0.43;100.00;96513.91;10511307;28;20259;-76
2022/01/06 12:27:10;;;;;;;4.40;1.90;;;;;;;0.26;100.00;96515.00;10515328;28;20663;-76
2022/01/06 12:32:12;;;;;;;7.10;2.10;;;;;;;0.03;100.00;96515.59;10504047;28;20193;-76
2022/01/06 12:37:12;;;;;;;5.70;1.83;;;;;;;0.61;100.00;96519.59;10502784;28;20685;-76
2022/01/06 12:42:12;;;;;;;3.27;1.70;;;;;;;1.34;98.11;96483.88;10472399;28;20206;-76
2022/01/06 12:47:13;;;;;;;5.50;1.70;;;;;;;1.87;93.38;96474.16;10493373;28;20294;-75
2022/01/06 12:52:13;;;;;;;3.23;1.83;;;;;;;2.72;88.96;96455.09;10498439;28;20191;-75
2022/01/06 12:57:14;;;;;;;2.63;1.60;;;;;;;0.04;92.53;96512.13;10497676;28;20219;-75
2022/01/06 13:02:15;;;;;;;3.33;1.80;;;;;;;0.65;96.99;96546.03;10497354;28;20191;-75
2022/01/06 13:07:17;;;;;;;3.80;1.90;;;;;;;0.07;100.00;96548.78;10457433;28;20252;-75
2022/01/06 13:12:23;;;;;;;6.03;2.03;;;;;;;-0.39;100.00;96570.47;10457254;28;20242;-76
2022/01/06 13:17:29;;;;;;;10.07;2.40;;;;;;;-0.57;100.00;96579.28;10457081;28;20644;-75
2022/01/06 13:28:01;;;;;;;6.47;2.10;;;;;;;-0.64;100.00;96603.72;10480687;28;20660;-75
2022/01/06 13:33:07;;;;;;;5.87;2.60;;;;;;;-0.90;100.00;96611.22;10497841;28;20674;-75
2022/01/06 13:38:14;;;;;;;3.93;2.20;;;;;;;-1.16;100.00;96617.84;10511340;28;20709;-76
2022/01/06 13:43:19;;;;;;;4.00;2.30;;;;;;;-0.74;100.00;96621.44;10518400;28;20273;-75
2022/01/06 13:53:25;;;;;;;7.17;2.20;;;;;;;-1.01;100.00;96621.25;10537594;28;20191;-76
2022/01/06 13:58:26;;;;;;;5.57;2.57;;;;;;;-1.08;100.00;96624.19;10536912;28;20198;-76
2022/01/06 14:03:31;;;;;;;14.73;4.87;;;;;;;-0.82;100.00;96628.78;10536524;28;20194;-76
2022/01/06 14:08:32;;;;;;;4.50;2.07;;;;;;;-0.78;100.00;96627.66;10533442;28;20660;-76
2022/01/06 14:13:32;;;;;;;4.57;1.90;;;;;;;-1.04;100.00;96642.00;10534571;28;20697;-75
2022/01/06 14:18:33;;;;;;;6.27;2.40;;;;;;;-1.15;100.00;96652.88;10537711;28;20266;-76
2022/01/06 14:23:34;;;;;;;5.17;2.33;;;;;;;-0.91;100.00;96656.66;10537765;28;20236;-76
2022/01/06 14:28:36;;;;;;;3.83;1.90;;;;;;;-0.95;100.00;96657.75;10538224;28;20222;-76
2022/01/06 14:33:38;;;;;;;6.37;3.20;;;;;;;-1.16;100.00;96653.81;10537346;28;20213;-77
2022/01/06 14:38:41;;;;;;;4.53;2.67;;;;;;;-1.41;100.00;96662.03;10536117;28;20234;-77
2022/01/06 14:43:42;;;;;;;6.70;2.20;;;;;;;-1.30;100.00;96665.69;10537788;28;20272;-76
2022/01/06 14:48:44;;;;;;;7.80;4.17;;;;;;;-1.67;100.00;96680.53;10535969;28;20191;-77
2022/01/06 14:53:45;;;;;;;13.17;6.30;;;;;;;-1.82;100.00;96683.91;10536800;28;20268;-75
2022/01/06 14:58:45;;;;;;;18.70;10.50;;;;;;;-1.77;100.00;96686.25;10536716;28;20190;-76
2022/01/06 15:03:45;;;;;;;20.90;10.73;;;;;;;-1.90;100.00;96684.31;10535758;28;20587;-76
2022/01/06 15:08:46;;;;;;;27.60;15.70;;;;;;;-1.90;100.00;96689.44;10517715;28;20260;-76
2022/01/06 15:13:46;;;;;;;19.47;7.40;;;;;;;-2.06;100.00;96691.16;10534418;28;20210;-75
2022/01/06 15:18:47;;;;;;;23.67;10.27;;;;;;;-2.17;100.00;96705.34;10515670;28;20662;-75
2022/01/06 15:23:47;;;;;;;68.10;25.17;;;;;;;-2.24;100.00;96711.69;10515669;28;20544;-75
2022/01/06 15:28:47;;;;;;;155.37;47.60;;;;;;;-2.23;100.00;96722.81;10516008;28;20277;-75
2022/01/06 15:33:48;;;;;;;134.50;45.93;;;;;;;-2.31;100.00;96725.75;10532378;28;20206;-77
2022/01/06 15:38:48;;;;;;;9.73;4.20;;;;;;;-2.58;100.00;96733.91;10535487;28;20236;-77
2022/01/06 15:43:49;;;;;;;9.33;5.03;;;;;;;-2.62;100.00;96737.53;10516334;28;20194;-78
2022/01/06 15:48:50;;;;;;;10.33;4.93;;;;;;;-2.64;100.00;96746.19;10534566;28;20289;-76
2022/01/06 15:53:50;;;;;;;13.83;7.57;;;;;;;-2.68;100.00;96758.31;10516428;28;20225;-76
2022/01/06 15:58:52;;;;;;;18.30;8.90;;;;;;;-2.85;100.00;96753.19;10534626;28;20186;-77
2022/01/06 16:09:12;;;;;;;34.47;12.27;;;;;;;-2.94;100.00;96772.38;10531474;28;20218;-77
2022/01/06 16:14:12;;;;;;;46.67;19.47;;;;;;;-2.96;100.00;96775.00;10531263;28;20689;-77
2022/01/06 16:19:12;;;;;;;13.83;7.93;;;;;;;-2.92;100.00;96779.09;10528783;28;20690;-77
2022/01/06 16:24:13;;;;;;;7.40;4.47;;;;;;;-2.95;100.00;96786.13;10521462;28;20676;-77
2022/01/06 16:29:14;;;;;;;12.67;7.47;;;;;;;-2.99;100.00;96793.09;10541185;28;20674;-77
2022/01/06 16:34:15;;;;;;;6.43;4.37;;;;;;;-3.18;100.00;96797.44;10541154;28;20214;-78
2022/01/06 16:39:15;;;;;;;18.03;8.17;;;;;;;-3.42;100.00;96803.56;10541906;28;20226;-78
2022/01/06 16:44:15;;;;;;;5.13;3.50;;;;;;;-3.74;100.00;96806.72;10539992;28;20713;-77
2022/01/06 16:49:16;;;;;;;5.03;3.33;;;;;;;-3.87;100.00;96808.97;10540978;28;20583;-77
2022/01/06 16:54:16;;;;;;;5.67;3.87;;;;;;;-3.84;100.00;96819.91;10540072;28;20698;-77
2022/01/06 16:59:17;;;;;;;5.83;3.60;;;;;;;-3.73;100.00;96822.00;10521497;28;20749;-77
2022/01/06 17:04:17;;;;;;;7.87;4.13;;;;;;;-3.84;100.00;96827.56;10539435;28;20563;-77
2022/01/06 17:09:17;;;;;;;5.73;3.70;;;;;;;-3.74;100.00;96822.06;10539236;28;20277;-77
2022/01/06 17:14:18;;;;;;;6.63;4.00;;;;;;;-3.72;100.00;96826.22;10523318;28;20292;-77
2022/01/06 17:19:18;;;;;;;7.83;4.17;;;;;;;-3.63;100.00;96833.50;10541419;28;20197;-78
2022/01/06 17:24:21;;;;;;;9.77;3.33;;;;;;;-3.54;100.00;96839.13;10524548;28;20233;-79
2022/01/06 17:29:22;;;;;;;6.97;3.60;;;;;;;-3.52;100.00;96829.63;10541618;28;20187;-78
2022/01/06 17:34:23;;;;;;;6.97;4.13;;;;;;;-3.55;100.00;96822.09;10523482;28;20271;-78
2022/01/06 17:39:23;;;;;;;6.93;3.93;;;;;;;-3.62;100.00;96830.03;10522426;28;20238;-78
2022/01/06 17:44:24;;;;;;;5.47;2.97;;;;;;;-3.58;100.00;96830.75;10539442;28;20183;-77
2022/01/06 17:49:24;;;;;;;4.73;3.13;;;;;;;-3.56;100.00;96833.25;10539669;28;20200;-78
2022/01/06 17:54:24;;;;;;;10.33;3.40;;;;;;;-3.51;100.00;96839.00;10506921;28;20217;-77
2022/01/06 17:59:29;;;;;;;6.13;3.57;;;;;;;-3.44;100.00;96841.22;10503032;28;20199;-77
2022/01/06 18:04:31;;;;;;;6.60;3.90;;;;;;;-3.52;100.00;96845.84;10480147;28;20654;-78
2022/01/06 18:14:50;;;;;;;4.90;3.43;;;;;;;-3.52;100.00;96852.69;10508120;28;20264;-78
2022/01/06 18:19:50;;;;;;;38.90;13.87;;;;;;;-3.81;100.00;96837.69;10514255;28;20219;-78
2022/01/06 18:24:51;;;;;;;17.47;5.37;;;;;;;-3.76;100.00;96832.38;10516911;28;20544;-78
2022/01/06 18:29:51;;;;;;;43.87;14.33;;;;;;;-3.81;100.00;96837.69;10501168;28;20217;-78
2022/01/06 18:34:51;;;;;;;14.20;5.40;;;;;;;-3.71;100.00;96833.00;10496095;28;20229;-78
2022/01/06 18:39:52;;;;;;;17.33;6.70;;;;;;;-3.73;100.00;96834.81;10467671;28;20281;-78
2022/01/06 18:44:52;;;;;;;17.63;5.93;;;;;;;-3.76;100.00;96835.75;10454256;28;20198;-78
2022/01/06 18:49:53;;;;;;;54.97;16.60;;;;;;;-3.71;100.00;96839.84;10459097;28;20264;-78
2022/01/06 18:54:54;;;;;;;16.80;8.80;;;;;;;-3.73;100.00;96855.28;10462789;28;20225;-79
2022/01/06 18:59:56;;;;;;;21.57;10.07;;;;;;;-3.66;100.00;96846.44;10459968;28;20257;-78
2022/01/06 19:04:56;;;;;;;20.00;9.67;;;;;;;-3.61;100.00;96841.94;10476337;28;20242;-79
2022/01/06 19:09:57;;;;;;;9.83;4.40;;;;;;;-3.62;100.00;96850.53;10473354;28;20189;-78
2022/01/06 19:14:57;;;;;;;10.43;5.13;;;;;;;-3.67;100.00;96849.06;10479064;28;20226;-79
2022/01/06 19:19:58;;;;;;;9.83;5.17;;;;;;;-3.65;100.00;96852.38;10493809;28;20554;-78
2022/01/06 19:24:59;;;;;;;10.60;5.23;;;;;;;-3.70;100.00;96850.03;10494067;28;20552;-78
2022/01/06 19:29:59;;;;;;;3.93;2.83;;;;;;;-3.77;100.00;96856.28;10494034;28;20198;-79
2022/01/06 19:35:00;;;;;;;5.90;3.07;;;;;;;-3.81;100.00;96858.16;10493779;28;20278;-78
2022/01/06 19:40:00;;;;;;;4.27;2.93;;;;;;;-3.77;100.00;96853.72;10528649;28;20237;-77
2022/01/06 19:45:00;;;;;;;4.63;2.67;;;;;;;-3.75;100.00;96859.66;10522667;28;20191;-78
2022/01/06 19:50:01;;;;;;;5.00;2.93;;;;;;;-3.82;100.00;96858.22;10509587;28;20214;-77
2022/01/06 19:55:03;;;;;;;7.30;3.77;;;;;;;-3.85;100.00;96864.28;10511220;28;20212;-78
2022/01/06 20:00:06;;;;;;;16.50;6.97;;;;;;;-3.79;100.00;96855.53;10510633;28;20230;-78
2022/01/06 20:05:06;;;;;;;7.37;2.97;;;;;;;-3.83;100.00;96864.22;10492489;28;20194;-78
2022/01/06 20:10:07;;;;;;;5.13;2.63;;;;;;;-3.86;100.00;96859.25;10506472;28;20198;-78
2022/01/06 20:15:08;;;;;;;3.73;1.87;;;;;;;-3.92;100.00;96852.66;10493170;28;20299;-78
2022/01/06 20:20:23;;;;;;;5.50;2.10;;;;;;;-3.95;100.00;96856.19;10493050;28;20190;-78
2022/01/06 20:25:25;;;;;;;4.37;1.67;;;;;;;-3.98;100.00;96853.75;10495479;28;20198;-79
2022/01/06 20:30:25;;;;;;;2.93;1.83;;;;;;;-3.90;100.00;96853.44;10503864;28;20198;-79
2022/01/06 20:35:26;;;;;;;6.07;2.40;;;;;;;-4.03;100.00;96858.22;10512788;28;20226;-79
2022/01/06 20:40:28;;;;;;;2.43;1.77;;;;;;;-4.03;100.00;96865.88;10513464;28;20224;-79
2022/01/06 20:45:30;;;;;;;6.43;1.53;;;;;;;-3.85;100.00;96866.84;10510349;28;20540;-79
2022/01/06 20:55:52;;;;;;;4.60;2.10;;;;;;;-3.82;100.00;96871.84;10496113;28;20226;-79
2022/01/06 21:00:52;;;;;;;6.93;2.33;;;;;;;-3.84;100.00;96877.94;10516870;28;20194;-76
2022/01/06 21:05:52;;;;;;;5.10;1.90;;;;;;;-3.90;100.00;96893.56;10531555;28;20189;-78
2022/01/06 21:10:53;;;;;;;4.40;2.03;;;;;;;-3.96;100.00;96872.41;10523559;28;20212;-77
2022/01/06 21:15:54;;;;;;;5.10;2.03;;;;;;;-3.90;100.00;96878.19;10542015;28;20217;-77
2022/01/06 21:20:56;;;;;;;6.83;2.03;;;;;;;-3.95;100.00;96870.72;10538849;28;20221;-78
2022/01/06 21:25:57;;;;;;;8.87;2.10;;;;;;;-3.96;100.00;96874.97;10523587;28;20194;-77
2022/01/06 21:30:57;;;;;;;2.83;1.63;;;;;;;-3.88;100.00;96887.47;10540488;28;20201;-77
2022/01/06 21:35:58;;;;;;;2.37;1.43;;;;;;;-3.81;100.00;96882.94;10539451;28;20221;-77
2022/01/06 21:40:58;;;;;;;7.17;1.60;;;;;;;-3.92;100.00;96883.38;10540224;28;20190;-77
2022/01/06 21:45:58;;;;;;;5.73;2.00;;;;;;;-4.00;100.00;96886.22;10540498;28;20205;-77
2022/01/06 21:51:01;;;;;;;6.40;2.00;;;;;;;-4.05;100.00;96877.09;10540204;28;20201;-77
2022/01/06 21:56:01;;;;;;;2.80;1.83;;;;;;;-4.11;100.00;96878.16;10539699;28;20224;-78
2022/01/06 22:01:02;;;;;;;3.33;1.47;;;;;;;-4.11;100.00;96867.94;10538382;28;20202;-78
2022/01/06 22:06:04;;;;;;;5.53;1.67;;;;;;;-4.14;100.00;96875.72;10517774;28;20681;-78
2022/01/06 22:11:05;;;;;;;3.97;1.93;;;;;;;-4.22;100.00;96867.53;10539406;28;20281;-78
2022/01/06 22:16:05;;;;;;;4.17;1.50;;;;;;;-4.29;100.00;96866.94;10539211;28;20308;-78
2022/01/06 22:21:05;;;;;;;3.87;1.90;;;;;;;-4.41;100.00;96858.06;10539164;28;20193;-78
2022/01/06 22:26:06;;;;;;;3.57;2.03;;;;;;;-4.38;100.00;96852.81;10539287;28;20653;-78
2022/01/06 22:31:07;;;;;;;7.27;1.93;;;;;;;-4.40;100.00;96844.34;10520481;28;20600;-78
2022/01/06 22:36:08;;;;;;;3.23;1.80;;;;;;;-4.40;100.00;96841.78;10518138;28;20252;-78
2022/01/06 22:41:08;;;;;;;4.57;1.83;;;;;;;-4.42;100.00;96835.09;10538869;28;20226;-78
2022/01/06 22:46:08;;;;;;;2.57;1.40;;;;;;;-4.39;100.00;96840.09;10538496;28;20276;-78
2022/01/06 22:51:10;;;;;;;2.70;1.60;;;;;;;-4.44;100.00;96836.88;10538700;28;20239;-78
2022/01/06 22:56:10;;;;;;;5.90;1.63;;;;;;;-4.52;100.00;96839.72;10537257;28;20220;-78
2022/01/06 23:01:11;;;;;;;5.47;1.97;;;;;;;-4.49;100.00;96840.47;10502654;28;20556;-78
2022/01/06 23:06:11;;;;;;;8.10;1.47;;;;;;;-4.21;100.00;96841.06;10536906;28;20201;-78
2022/01/06 23:11:12;;;;;;;4.53;1.60;;;;;;;-4.27;100.00;96848.97;10519496;28;20205;-77
2022/01/06 23:16:12;;;;;;;3.90;1.30;;;;;;;-4.25;100.00;96842.91;10537708;28;20782;-78
2022/01/06 23:21:12;;;;;;;3.77;1.50;;;;;;;-4.34;100.00;96833.06;10519290;28;20185;-77
2022/01/06 23:26:13;;;;;;;2.13;1.27;;;;;;;-4.38;100.00;96842.59;10537779;28;20199;-78
2022/01/06 23:31:13;;;;;;;3.10;1.50;;;;;;;-4.45;100.00;96838.59;10518212;28;20197;-78
2022/01/06 23:36:15;;;;;;;4.53;1.63;;;;;;;-4.47;100.00;96827.63;10536996;28;20229;-78